Time;durP1;ratioP1;P1;durP2;ratioP2;P2;SDS_P1;SDS_P2;PMS_P1;PMS_P2;Temp;Humidity;BMP_temperature;BMP_pressure;BME280_temperature;BME280_humidity;BME280_pressure;Samples;Min_cycle;Max_cycle;Signal;HPM_P1;HPM_P2
2023/12/28 00:00:41;;;;;;;;;;;;;;;6.04;70.86;99944.34;1086129;54;1069;-77
2023/12/28 00:01:42;;;;;;;;;;;;;;;5.98;71.07;99953.59;1085977;47;1325;-78
2023/12/28 00:02:45;;;;;;;;;;;;;;;5.95;70.97;99956.50;1086578;54;1068;-77
2023/12/28 00:04:01;;;;;;;;;;;;;;;5.86;71.03;99963.31;1086668;54;1182;-78
2023/12/28 00:05:04;;;;;;;;;;;;;;;5.82;71.17;99959.19;1086849;54;1870;-77
2023/12/28 00:06:06;;;;;;;;;;;;;;;5.83;71.45;99971.50;1088138;47;1103;-78
2023/12/28 00:07:13;;;;;;;;;;;;;;;5.74;71.24;99969.56;1087997;54;1161;-78
2023/12/28 00:08:16;;;;;;;;;;;;;;;5.73;71.69;99971.38;1088173;54;1135;-79
2023/12/28 00:09:20;;;;;;;;;;;;;;;5.71;71.54;99981.25;1087943;47;1265;-78
2023/12/28 00:10:27;;;;;;;;;;;;;;;5.71;71.78;99983.06;1087202;47;1078;-78
2023/12/28 00:11:33;;;;;;;;;;;;;;;5.63;71.69;99991.59;1088147;47;1149;-77
2023/12/28 00:12:33;;;;;;;;;;;;;;;5.56;71.73;99993.00;1088038;54;1060;-77
2023/12/28 00:13:37;;;;;;;;;;;;;;;5.62;71.53;100000.50;1087678;54;1155;-77
2023/12/28 00:14:37;;;;;;;;;;;;;;;5.55;71.86;99996.63;1087153;54;1154;-78
2023/12/28 00:15:42;;;;;;;;;;;;;;;5.56;71.73;100003.63;1086389;54;1154;-77
2023/12/28 00:16:43;;;;;;;;;;;;;;;5.50;71.79;99994.31;1086828;54;1135;-78
2023/12/28 00:17:47;;;;;;;;;;;;;;;5.49;71.77;99995.25;1086700;54;1061;-78
2023/12/28 00:18:48;;;;;;;;;;;;;;;5.54;71.73;99984.31;1086990;47;968;-77
2023/12/28 00:19:51;;;;;;;;;;;;;;;5.45;71.83;99989.34;1086268;54;1417;-78
2023/12/28 00:20:53;;;;;;;;;;;;;;;5.47;71.75;99984.78;1085802;47;1072;-77
2023/12/28 00:21:57;;;;;;;;;;;;;;;5.50;72.02;99982.84;1086199;47;1067;-77
2023/12/28 00:23:00;;;;;;;;;;;;;;;5.41;71.91;99987.03;1086608;54;1098;-79
2023/12/28 00:24:04;;;;;;;;;;;;;;;5.32;72.14;99985.88;1086732;54;1147;-77
2023/12/28 00:25:06;;;;;;;;;;;;;;;5.35;72.24;99988.31;1086435;47;1855;-77
2023/12/28 00:26:11;;;;;;;;;;;;;;;5.29;72.24;99980.84;1086429;47;1003;-78
2023/12/28 00:27:12;;;;;;;;;;;;;;;5.19;72.59;99987.75;1086699;46;1504;-78
2023/12/28 00:28:15;;;;;;;;;;;;;;;5.10;72.75;99970.72;1086435;54;1517;-77
2023/12/28 00:29:16;;;;;;;;;;;;;;;5.19;72.63;99970.03;1085934;54;1393;-77
2023/12/28 00:30:19;;;;;;;;;;;;;;;5.15;73.00;99973.84;1086518;54;1205;-78
2023/12/28 00:31:20;;;;;;;;;;;;;;;5.21;72.86;99983.16;1086234;54;1059;-78
2023/12/28 00:32:23;;;;;;;;;;;;;;;5.21;72.93;99977.88;1086504;54;1109;-76
2023/12/28 00:33:24;;;;;;;;;;;;;;;5.14;72.81;99972.19;1085915;54;1231;-77
2023/12/28 00:34:28;;;;;;;;;;;;;;;5.24;72.77;99975.84;1086649;54;1154;-78
2023/12/28 00:35:29;;;;;;;;;;;;;;;5.28;72.93;99976.50;1087819;47;1148;-79
2023/12/28 00:36:33;;;;;;;;;;;;;;;5.26;72.86;99976.59;1087457;54;1245;-77
2023/12/28 00:37:34;;;;;;;;;;;;;;;5.25;72.75;99984.66;1087738;47;1023;-77
2023/12/28 00:38:41;;;;;;;;;;;;;;;5.24;72.85;99977.66;1087322;47;948;-79
2023/12/28 00:39:41;;;;;;;;;;;;;;;5.21;72.91;99984.03;1086363;47;1424;-78
2023/12/28 00:40:45;;;;;;;;;;;;;;;5.25;72.98;99979.34;1087374;54;1104;-77
2023/12/28 00:41:45;;;;;;;;;;;;;;;5.21;72.90;99984.03;1087124;54;1246;-77
2023/12/28 00:42:46;;;;;;;;;;;;;;;5.25;72.86;99985.47;1087257;47;1175;-78
2023/12/28 00:43:49;;;;;;;;;;;;;;;5.24;72.91;99986.44;1085769;54;1078;-78
2023/12/28 00:44:50;;;;;;;;;;;;;;;5.22;73.10;99988.38;1086784;47;1850;-77
2023/12/28 00:45:54;;;;;;;;;;;;;;;5.14;72.89;99988.94;1087046;54;1100;-77
2023/12/28 00:46:55;;;;;;;;;;;;;;;5.05;73.08;99983.47;1087348;54;1110;-78
2023/12/28 00:47:58;;;;;;;;;;;;;;;5.02;73.29;99984.50;1086351;47;1135;-78
2023/12/28 00:48:59;;;;;;;;;;;;;;;4.95;73.50;99993.84;1086660;47;1165;-78
2023/12/28 00:51:20;;;;;;;;;;;;;;;4.95;73.34;99989.44;1086927;47;1044;-77
2023/12/28 00:52:21;;;;;;;;;;;;;;;5.00;73.31;99986.44;1086037;47;1225;-78
2023/12/28 00:53:25;;;;;;;;;;;;;;;4.88;73.61;99988.16;1086019;47;1078;-78
2023/12/28 00:54:28;;;;;;;;;;;;;;;4.90;73.61;99980.09;1087404;54;1082;-78
2023/12/28 00:55:32;;;;;;;;;;;;;;;4.90;73.53;99982.75;1087169;47;1121;-77
2023/12/28 00:56:33;;;;;;;;;;;;;;;4.96;73.12;99983.13;1087686;47;892;-77
2023/12/28 00:57:37;;;;;;;;;;;;;;;5.00;73.01;99981.16;1086781;47;936;-76
2023/12/28 00:58:39;;;;;;;;;;;;;;;4.97;73.09;99976.88;1086372;47;1063;-78
2023/12/28 00:59:44;;;;;;;;;;;;;;;5.04;73.10;99982.59;1085725;54;1377;-77
2023/12/28 01:00:44;;;;;;;;;;;;;;;5.08;72.95;99991.16;1087713;54;1093;-77
2023/12/28 01:01:48;;;;;;;;;;;;;;;5.07;72.85;99984.16;1087192;47;1365;-78
2023/12/28 01:02:49;;;;;;;;;;;;;;;5.00;73.07;99991.75;1086156;47;1067;-80
2023/12/28 01:03:53;;;;;;;;;;;;;;;5.10;72.67;99979.50;1086354;54;1526;-78
2023/12/28 01:04:54;;;;;;;;;;;;;;;5.10;72.42;99987.44;1087344;47;1837;-77
2023/12/28 01:05:55;;;;;;;;;;;;;;;5.14;72.32;99988.94;1086042;47;1126;-77
2023/12/28 01:07:01;;;;;;;;;;;;;;;5.07;72.68;99987.69;1086016;47;1140;-77
2023/12/28 01:08:03;;;;;;;;;;;;;;;5.02;72.70;99992.44;1086275;54;1071;-77
2023/12/28 01:09:11;;;;;;;;;;;;;;;5.00;72.79;99994.38;1085074;47;1178;-77
2023/12/28 01:10:14;;;;;;;;;;;;;;;5.01;73.00;100001.34;1085862;54;983;-77
2023/12/28 01:11:18;;;;;;;;;;;;;;;5.02;72.56;99995.09;1085645;54;1114;-76
2023/12/28 01:12:18;;;;;;;;;;;;;;;4.93;72.62;100012.53;1085433;47;1078;-77
2023/12/28 01:13:22;;;;;;;;;;;;;;;4.98;72.53;99998.94;1086449;54;1317;-76
2023/12/28 01:14:23;;;;;;;;;;;;;;;4.94;72.73;99993.03;1086033;54;1156;-77
2023/12/28 01:15:26;;;;;;;;;;;;;;;4.88;72.83;99998.75;1086914;54;1027;-77
2023/12/28 01:16:28;;;;;;;;;;;;;;;4.82;73.14;100007.13;1087208;54;1107;-78
2023/12/28 01:17:34;;;;;;;;;;;;;;;4.84;72.90;99998.13;1087627;54;1115;-78
2023/12/28 01:18:35;;;;;;;;;;;;;;;4.80;73.15;100001.97;1086028;47;1056;-78
2023/12/28 01:19:38;;;;;;;;;;;;;;;4.89;72.74;100005.75;1087068;54;1353;-77
2023/12/28 01:20:39;;;;;;;;;;;;;;;4.93;72.81;99995.75;1087180;54;1063;-76
2023/12/28 01:21:40;;;;;;;;;;;;;;;4.97;72.67;100000.72;1086985;54;1178;-77
2023/12/28 01:22:43;;;;;;;;;;;;;;;4.97;72.60;100005.19;1087960;46;1326;-78
2023/12/28 01:23:45;;;;;;;;;;;;;;;4.91;72.46;100001.19;1086751;47;1166;-78
2023/12/28 01:24:49;;;;;;;;;;;;;;;4.87;72.70;99996.22;1087271;47;1847;-78
2023/12/28 01:25:55;;;;;;;;;;;;;;;4.92;72.67;99994.06;1086144;47;1067;-78
2023/12/28 01:26:56;;;;;;;;;;;;;;;4.78;73.11;100006.50;1087417;54;1135;-78
2023/12/28 01:28:01;;;;;;;;;;;;;;;4.70;73.19;100000.91;1086624;47;1103;-80
2023/12/28 01:29:02;;;;;;;;;;;;;;;4.81;73.11;100003.66;1087442;47;996;-77
2023/12/28 01:30:06;;;;;;;;;;;;;;;4.85;72.93;99998.97;1087306;54;1403;-77
2023/12/28 01:31:07;;;;;;;;;;;;;;;4.89;72.92;99996.97;1087908;47;962;-78
2023/12/28 01:32:28;;;;;;;;;;;;;;;4.94;72.64;100002.75;1086539;54;1173;-80
2023/12/28 01:33:28;;;;;;;;;;;;;;;4.97;72.56;99986.66;1087035;54;1065;-78
2023/12/28 01:34:32;;;;;;;;;;;;;;;4.96;72.75;99999.03;1087370;47;1139;-78
2023/12/28 01:35:42;;;;;;;;;;;;;;;5.03;72.77;100002.09;1087580;47;1185;-79
2023/12/28 01:36:46;;;;;;;;;;;;;;;5.04;72.50;100009.09;1088193;54;1131;-77
2023/12/28 01:37:46;;;;;;;;;;;;;;;5.03;72.48;100010.06;1088134;54;971;-78
2023/12/28 01:38:47;;;;;;;;;;;;;;;4.99;72.81;100020.03;1087707;54;982;-79
2023/12/28 01:39:53;;;;;;;;;;;;;;;5.06;72.41;100015.13;1087073;54;1385;-78
2023/12/28 01:40:56;;;;;;;;;;;;;;;4.93;72.91;100019.59;1087328;54;1102;-78
2023/12/28 01:42:04;;;;;;;;;;;;;;;4.93;72.63;100017.81;1086759;47;1122;-78
2023/12/28 01:43:04;;;;;;;;;;;;;;;4.80;73.12;100017.84;1086955;46;1084;-77
2023/12/28 01:44:08;;;;;;;;;;;;;;;4.73;73.10;100021.88;1088203;46;1070;-79
2023/12/28 01:45:09;;;;;;;;;;;;;;;4.71;73.01;100014.97;1087598;46;1922;-77
2023/12/28 01:46:17;;;;;;;;;;;;;;;4.70;73.20;100011.50;1086742;54;1157;-78
2023/12/28 01:47:18;;;;;;;;;;;;;;;4.65;73.28;100018.91;1087744;54;1153;-77
2023/12/28 01:48:23;;;;;;;;;;;;;;;4.70;73.25;100027.41;1087615;47;1142;-77
2023/12/28 01:49:24;;;;;;;;;;;;;;;4.75;73.20;100025.25;1088248;47;1298;-79
2023/12/28 01:50:49;;;;;;;;;;;;;;;4.79;72.98;100021.44;1087874;47;976;-78
2023/12/28 01:51:50;;;;;;;;;;;;;;;4.69;73.02;100026.53;1087666;54;1063;-77
2023/12/28 01:52:54;;;;;;;;;;;;;;;4.56;73.25;100017.75;1088107;47;1154;-77
2023/12/28 01:53:55;;;;;;;;;;;;;;;4.58;73.12;100020.28;1087935;46;989;-77
2023/12/28 01:54:58;;;;;;;;;;;;;;;4.58;73.07;100018.47;1088020;46;1243;-79
2023/12/28 01:56:03;;;;;;;;;;;;;;;4.62;73.18;100009.38;1087177;54;1009;-76
2023/12/28 01:57:07;;;;;;;;;;;;;;;4.67;72.92;100022.31;1087571;47;1429;-77
2023/12/28 01:58:08;;;;;;;;;;;;;;;4.62;72.97;100019.16;1087121;54;1142;-76
2023/12/28 01:59:11;;;;;;;;;;;;;;;4.65;73.16;100019.78;1088003;54;1415;-79
2023/12/28 02:00:12;;;;;;;;;;;;;;;4.68;72.86;100032.78;1087265;46;1074;-76
2023/12/28 02:01:16;;;;;;;;;;;;;;;4.66;72.84;100024.13;1087261;46;1539;-77
2023/12/28 02:02:17;;;;;;;;;;;;;;;4.60;72.92;100027.16;1086600;54;1135;-77
2023/12/28 02:03:20;;;;;;;;;;;;;;;4.61;72.98;100034.16;1086875;54;1134;-78
2023/12/28 02:04:27;;;;;;;;;;;;;;;4.57;73.27;100037.13;1086147;54;1169;-78
2023/12/28 02:05:30;;;;;;;;;;;;;;;4.62;72.75;100035.03;1087638;47;1852;-79
2023/12/28 02:06:31;;;;;;;;;;;;;;;4.65;72.93;100030.38;1086887;54;1028;-77
2023/12/28 02:07:35;;;;;;;;;;;;;;;4.70;72.62;100030.03;1086999;46;1168;-77
2023/12/28 02:08:35;;;;;;;;;;;;;;;4.65;72.98;100033.00;1086618;54;1099;-77
2023/12/28 02:09:39;;;;;;;;;;;;;;;4.70;72.67;100038.00;1086810;54;1365;-77
2023/12/28 02:10:40;;;;;;;;;;;;;;;4.76;72.59;100034.06;1087201;54;1173;-77
2023/12/28 02:11:57;;;;;;;;;;;;;;;4.76;72.53;100031.41;1087501;54;1155;-78
2023/12/28 02:12:59;;;;;;;;;;;;;;;4.72;72.48;100030.78;1087534;47;940;-79
2023/12/28 02:13:59;;;;;;;;;;;;;;;4.69;72.53;100025.69;1087602;47;980;-77
2023/12/28 02:15:03;;;;;;;;;;;;;;;4.66;72.40;100032.06;1086800;47;1091;-78
2023/12/28 02:16:10;;;;;;;;;;;;;;;4.71;72.39;100034.38;1087180;54;1127;-77
2023/12/28 02:17:18;;;;;;;;;;;;;;;4.71;72.45;100039.69;1087256;54;993;-78
2023/12/28 02:18:21;;;;;;;;;;;;;;;4.68;72.16;100032.78;1086899;54;1166;-77
2023/12/28 02:19:28;;;;;;;;;;;;;;;4.71;72.33;100029.09;1088011;54;1519;-76
2023/12/28 02:20:32;;;;;;;;;;;;;;;4.73;72.16;100029.81;1088339;47;1017;-77
2023/12/28 02:21:36;;;;;;;;;;;;;;;4.67;72.36;100027.59;1088318;54;1162;-77
2023/12/28 02:22:37;;;;;;;;;;;;;;;4.53;72.49;100032.03;1088422;54;1031;-78
2023/12/28 02:23:40;;;;;;;;;;;;;;;4.57;72.50;100032.69;1088020;47;1186;-78
2023/12/28 02:24:59;;;;;;;;;;;;;;;4.48;72.72;100033.34;1087394;54;1044;-78
2023/12/28 02:26:06;;;;;;;;;;;;;;;4.52;72.53;100027.72;1087315;54;1857;-77
2023/12/28 02:27:07;;;;;;;;;;;;;;;4.46;72.79;100032.59;1087737;54;1058;-78
2023/12/28 02:28:08;;;;;;;;;;;;;;;4.48;72.51;100028.03;1087370;54;1162;-78
2023/12/28 02:29:11;;;;;;;;;;;;;;;4.46;72.79;100046.66;1086598;54;1491;-77
2023/12/28 02:30:13;;;;;;;;;;;;;;;4.54;72.76;100024.97;1085929;47;1134;-77
2023/12/28 02:31:22;;;;;;;;;;;;;;;4.50;72.47;100026.97;1086734;54;1090;-77
2023/12/28 02:32:29;;;;;;;;;;;;;;;4.46;72.69;100033.44;1086242;54;1147;-77
2023/12/28 02:33:36;;;;;;;;;;;;;;;4.46;72.69;100028.13;1087178;54;1102;-77
2023/12/28 02:34:39;;;;;;;;;;;;;;;4.39;73.19;100029.50;1087881;54;982;-76
2023/12/28 02:35:42;;;;;;;;;;;;;;;4.38;73.28;100033.09;1087461;54;1124;-77
2023/12/28 02:36:47;;;;;;;;;;;;;;;4.45;72.86;100022.94;1088230;54;1020;-77
2023/12/28 02:37:50;;;;;;;;;;;;;;;4.35;73.06;100035.97;1087177;54;1110;-77
2023/12/28 02:38:52;;;;;;;;;;;;;;;4.36;73.28;100011.19;1086907;54;1035;-77
2023/12/28 02:39:56;;;;;;;;;;;;;;;4.29;73.17;100025.81;1086627;47;1338;-79
2023/12/28 02:40:57;;;;;;;;;;;;;;;4.32;73.52;100030.91;1087594;46;1011;-78
2023/12/28 02:42:03;;;;;;;;;;;;;;;4.41;73.02;100027.63;1087910;47;1056;-76
2023/12/28 02:43:04;;;;;;;;;;;;;;;4.43;73.15;100025.72;1087185;47;1060;-77
2023/12/28 02:44:07;;;;;;;;;;;;;;;4.37;73.34;100013.75;1087883;46;1051;-77
2023/12/28 02:45:09;;;;;;;;;;;;;;;4.39;73.31;100012.81;1086420;46;1134;-77
2023/12/28 02:46:13;;;;;;;;;;;;;;;4.44;72.84;100011.50;1087460;46;1889;-77
2023/12/28 02:47:14;;;;;;;;;;;;;;;4.48;72.97;100006.88;1085570;46;1065;-76
2023/12/28 02:48:17;;;;;;;;;;;;;;;4.54;72.87;100017.03;1085658;54;1098;-77
2023/12/28 02:49:18;;;;;;;;;;;;;;;4.51;72.91;100018.09;1086259;54;1364;-77
2023/12/28 02:50:19;;;;;;;;;;;;;;;4.52;72.76;100011.84;1085656;54;1166;-76
2023/12/28 02:51:22;;;;;;;;;;;;;;;4.45;72.66;100021.13;1086387;46;945;-77
2023/12/28 02:52:23;;;;;;;;;;;;;;;4.52;72.61;100030.38;1086795;54;1169;-77
2023/12/28 02:53:26;;;;;;;;;;;;;;;4.46;72.73;100020.19;1086132;54;1203;-75
2023/12/28 02:54:27;;;;;;;;;;;;;;;4.44;72.59;100027.38;1085988;47;1032;-76
2023/12/28 02:55:30;;;;;;;;;;;;;;;4.39;72.46;100032.16;1086400;54;1119;-76
2023/12/28 02:56:32;;;;;;;;;;;;;;;4.28;73.29;100038.19;1086041;47;1078;-76
2023/12/28 02:57:39;;;;;;;;;;;;;;;4.29;72.95;100033.75;1086215;54;1151;-76
2023/12/28 02:58:40;;;;;;;;;;;;;;;4.25;73.23;100022.53;1086214;46;1124;-76
2023/12/28 02:59:41;;;;;;;;;;;;;;;4.22;73.33;100035.94;1085830;54;1416;-76
2023/12/28 03:00:44;;;;;;;;;;;;;;;4.23;73.34;100037.66;1085509;54;1212;-76
2023/12/28 03:01:45;;;;;;;;;;;;;;;4.26;73.35;100032.16;1085395;54;1176;-74
2023/12/28 03:02:49;;;;;;;;;;;;;;;4.19;73.30;100037.00;1085543;46;1487;-76
2023/12/28 03:03:49;;;;;;;;;;;;;;;4.11;73.60;100041.97;1085441;47;1040;-76
2023/12/28 03:04:50;;;;;;;;;;;;;;;4.15;73.50;100038.19;1085506;47;1480;-76
2023/12/28 03:05:54;;;;;;;;;;;;;;;4.13;73.60;100042.72;1085693;47;1903;-76
2023/12/28 03:06:55;;;;;;;;;;;;;;;4.13;73.66;100047.16;1085740;54;1076;-76
2023/12/28 03:07:59;;;;;;;;;;;;;;;4.14;73.81;100043.56;1085638;47;1068;-76
2023/12/28 03:08:59;;;;;;;;;;;;;;;4.19;73.75;100034.38;1085502;54;1147;-75
2023/12/28 03:10:00;;;;;;;;;;;;;;;4.00;74.05;100033.91;1085527;51;1434;-76
2023/12/28 03:11:03;;;;;;;;;;;;;;;3.84;74.40;100034.94;1085593;47;1187;-76
2023/12/28 03:12:04;;;;;;;;;;;;;;;3.84;74.79;100045.53;1085556;46;1662;-76
2023/12/28 03:13:10;;;;;;;;;;;;;;;3.86;74.61;100038.34;1085841;54;1331;-76
2023/12/28 03:14:11;;;;;;;;;;;;;;;3.90;74.67;100038.97;1085564;54;1151;-76
2023/12/28 03:15:15;;;;;;;;;;;;;;;3.93;74.62;100032.63;1085183;54;828;-76
2023/12/28 03:16:17;;;;;;;;;;;;;;;3.90;74.82;100039.81;1085383;47;1154;-75
2023/12/28 03:17:17;;;;;;;;;;;;;;;3.78;74.88;100034.50;1085366;47;1211;-75
2023/12/28 03:18:20;;;;;;;;;;;;;;;3.82;75.02;100034.19;1085412;54;1178;-75
2023/12/28 03:19:21;;;;;;;;;;;;;;;3.87;74.83;100040.00;1085610;54;1367;-76
2023/12/28 03:20:24;;;;;;;;;;;;;;;3.88;74.94;100041.72;1085184;46;1129;-75
2023/12/28 03:21:25;;;;;;;;;;;;;;;3.95;74.52;100036.03;1085798;46;1134;-76
2023/12/28 03:22:26;;;;;;;;;;;;;;;3.79;74.86;100047.59;1085670;47;1002;-76
2023/12/28 03:23:29;;;;;;;;;;;;;;;3.93;74.76;100037.91;1085833;46;1171;-76
2023/12/28 03:24:30;;;;;;;;;;;;;;;4.02;74.76;100042.59;1085983;54;1127;-76
2023/12/28 03:25:33;;;;;;;;;;;;;;;4.09;74.47;100050.97;1086093;47;1856;-76
2023/12/28 03:26:38;;;;;;;;;;;;;;;4.12;74.45;100042.81;1085809;54;1115;-76
2023/12/28 03:27:41;;;;;;;;;;;;;;;4.10;74.51;100052.69;1086081;46;1181;-76
2023/12/28 03:28:44;;;;;;;;;;;;;;;4.16;74.35;100047.78;1086147;54;1193;-76
2023/12/28 03:29:48;;;;;;;;;;;;;;;4.13;74.36;100044.50;1085576;47;1270;-76
2023/12/28 03:30:48;;;;;;;;;;;;;;;4.01;74.59;100043.53;1086238;54;1154;-76
2023/12/28 03:31:49;;;;;;;;;;;;;;;3.99;74.85;100048.09;1086383;47;1031;-76
2023/12/28 03:32:52;;;;;;;;;;;;;;;4.06;74.47;100046.75;1086449;54;1084;-76
2023/12/28 03:33:53;;;;;;;;;;;;;;;3.94;74.86;100036.97;1086278;54;1101;-76
2023/12/28 03:34:56;;;;;;;;;;;;;;;3.92;74.84;100041.50;1086649;47;1165;-76
2023/12/28 03:35:57;;;;;;;;;;;;;;;4.01;74.69;100041.75;1086696;54;1174;-77
2023/12/28 03:37:01;;;;;;;;;;;;;;;4.13;74.63;100039.22;1086536;47;1123;-76
2023/12/28 03:38:02;;;;;;;;;;;;;;;3.98;74.78;100031.38;1086543;47;1338;-76
2023/12/28 03:39:06;;;;;;;;;;;;;;;4.06;74.61;100029.06;1086158;54;1107;-76
2023/12/28 03:40:07;;;;;;;;;;;;;;;4.07;74.60;100035.19;1086406;54;1518;-76
2023/12/28 03:41:18;;;;;;;;;;;;;;;4.03;74.80;100039.00;1086350;47;1083;-75
2023/12/28 03:42:19;;;;;;;;;;;;;;;4.14;74.54;100031.19;1086341;54;1030;-76
2023/12/28 03:43:22;;;;;;;;;;;;;;;4.24;74.19;100025.28;1086107;47;1480;-76
2023/12/28 03:44:25;;;;;;;;;;;;;;;4.24;74.35;100031.41;1086076;46;1078;-76
2023/12/28 03:45:29;;;;;;;;;;;;;;;4.16;74.81;100023.97;1085945;54;1118;-75
2023/12/28 03:46:30;;;;;;;;;;;;;;;4.29;74.33;100023.16;1085196;47;1919;-76
2023/12/28 03:47:33;;;;;;;;;;;;;;;4.37;74.29;100020.81;1085129;46;1131;-75
2023/12/28 03:48:35;;;;;;;;;;;;;;;4.46;74.05;100014.06;1085055;47;1111;-76
2023/12/28 03:49:39;;;;;;;;;;;;;;;4.45;74.05;100013.19;1084821;47;1403;-76
2023/12/28 03:50:39;;;;;;;;;;;;;;;4.46;73.77;100009.59;1085122;46;1054;-76
2023/12/28 03:51:42;;;;;;;;;;;;;;;4.48;73.87;100009.50;1084934;54;1193;-76
2023/12/28 03:52:43;;;;;;;;;;;;;;;4.59;73.68;100008.75;1085153;54;1076;-76
2023/12/28 03:53:44;;;;;;;;;;;;;;;4.62;73.31;100008.56;1085534;47;1198;-76
2023/12/28 03:54:47;;;;;;;;;;;;;;;4.49;73.73;100008.53;1085467;54;1187;-76
2023/12/28 03:55:48;;;;;;;;;;;;;;;4.56;73.56;100008.97;1085335;47;1142;-76
2023/12/28 03:56:51;;;;;;;;;;;;;;;4.61;73.15;100001.56;1085638;54;1119;-76
2023/12/28 03:57:52;;;;;;;;;;;;;;;4.58;73.13;100007.06;1085598;47;1162;-76
2023/12/28 03:58:53;;;;;;;;;;;;;;;4.55;73.10;100007.25;1085640;54;1153;-76
2023/12/28 03:59:59;;;;;;;;;;;;;;;4.63;73.02;99994.34;1085137;47;1380;-76
2023/12/28 04:00:59;;;;;;;;;;;;;;;4.66;72.98;99997.63;1085493;47;1341;-76
2023/12/28 04:02:02;;;;;;;;;;;;;;;4.64;73.13;99994.25;1085637;54;1139;-76
2023/12/28 04:03:04;;;;;;;;;;;;;;;4.61;73.07;100001.56;1085677;54;1151;-77
2023/12/28 04:04:08;;;;;;;;;;;;;;;4.61;72.85;100004.22;1085859;54;1059;-76
2023/12/28 04:05:09;;;;;;;;;;;;;;;4.65;73.04;100009.19;1085627;46;1114;-76
2023/12/28 04:06:13;;;;;;;;;;;;;;;4.72;72.97;100009.59;1084873;54;1881;-76
2023/12/28 04:07:14;;;;;;;;;;;;;;;4.70;73.24;100006.22;1084802;54;1188;-75
2023/12/28 04:08:17;;;;;;;;;;;;;;;4.76;72.92;100000.47;1084752;47;995;-76
2023/12/28 04:09:17;;;;;;;;;;;;;;;4.84;72.51;100000.75;1084479;54;1340;-75
2023/12/28 04:10:31;;;;;;;;;;;;;;;4.90;72.51;99999.50;1084600;47;1158;-76
2023/12/28 04:11:32;;;;;;;;;;;;;;;4.94;72.24;99998.31;1084534;54;1105;-76
2023/12/28 04:12:37;;;;;;;;;;;;;;;4.96;72.15;99995.56;1084941;47;1036;-76
2023/12/28 04:13:39;;;;;;;;;;;;;;;4.91;72.55;100003.00;1085481;47;1052;-76
2023/12/28 04:14:42;;;;;;;;;;;;;;;4.90;72.25;99996.84;1085403;47;1058;-75
2023/12/28 04:15:46;;;;;;;;;;;;;;;4.96;72.41;99999.03;1085356;54;1071;-78
2023/12/28 04:16:49;;;;;;;;;;;;;;;4.99;72.10;100011.25;1085392;47;1072;-75
2023/12/28 04:17:50;;;;;;;;;;;;;;;4.99;72.24;100008.59;1085301;54;1089;-75
2023/12/28 04:18:53;;;;;;;;;;;;;;;4.93;72.15;100004.56;1085299;47;1083;-76
2023/12/28 04:19:54;;;;;;;;;;;;;;;4.86;72.51;100005.97;1085040;54;1363;-76
2023/12/28 04:20:54;;;;;;;;;;;;;;;4.83;72.70;100001.72;1085087;47;1158;-76
2023/12/28 04:21:58;;;;;;;;;;;;;;;4.84;72.54;100003.41;1085095;54;1153;-75
2023/12/28 04:22:59;;;;;;;;;;;;;;;4.83;72.63;99999.06;1085388;54;1139;-75
2023/12/28 04:23:59;;;;;;;;;;;;;;;4.94;72.25;99997.47;1085157;47;1094;-76
2023/12/28 04:25:02;;;;;;;;;;;;;;;4.86;72.40;99998.03;1085206;47;1498;-75
2023/12/28 04:26:04;;;;;;;;;;;;;;;4.89;72.13;100003.09;1085436;54;1888;-76
2023/12/28 04:27:08;;;;;;;;;;;;;;;4.93;72.21;99990.47;1085615;54;1075;-75
2023/12/28 04:28:09;;;;;;;;;;;;;;;4.93;72.21;99985.16;1085366;47;1078;-76
2023/12/28 04:29:12;;;;;;;;;;;;;;;4.90;71.84;99988.88;1085453;54;1335;-76
2023/12/28 04:30:13;;;;;;;;;;;;;;;4.94;72.12;99982.44;1085473;47;1023;-75
2023/12/28 04:31:19;;;;;;;;;;;;;;;4.98;71.87;99989.19;1085593;47;1155;-76
2023/12/28 04:32:19;;;;;;;;;;;;;;;4.91;71.94;99990.59;1085738;54;1110;-76
2023/12/28 04:33:20;;;;;;;;;;;;;;;4.93;71.75;99987.81;1085502;47;1012;-76
2023/12/28 04:34:23;;;;;;;;;;;;;;;4.95;71.92;99988.56;1085783;54;1087;-76
2023/12/28 04:35:24;;;;;;;;;;;;;;;4.92;72.14;99986.97;1085546;54;1139;-76
2023/12/28 04:36:27;;;;;;;;;;;;;;;4.97;71.77;99989.31;1085586;47;1270;-76
2023/12/28 04:37:28;;;;;;;;;;;;;;;4.97;71.68;99986.66;1085445;54;1135;-76
2023/12/28 04:38:31;;;;;;;;;;;;;;;4.86;72.13;99986.56;1085119;47;1207;-75
2023/12/28 04:39:32;;;;;;;;;;;;;;;4.82;71.87;99992.06;1085359;54;1312;-76
2023/12/28 04:40:36;;;;;;;;;;;;;;;4.81;72.16;99987.75;1085575;47;1004;-75
2023/12/28 04:41:36;;;;;;;;;;;;;;;4.86;72.18;99990.09;1085009;54;1103;-76
2023/12/28 04:42:40;;;;;;;;;;;;;;;4.84;72.25;99998.13;1085225;54;1031;-75
2023/12/28 04:43:40;;;;;;;;;;;;;;;4.83;72.46;99991.13;1085354;54;1130;-76
2023/12/28 04:44:44;;;;;;;;;;;;;;;4.84;72.30;99992.00;1085584;47;1011;-76
2023/12/28 04:45:45;;;;;;;;;;;;;;;4.79;72.48;99997.63;1085365;47;1048;-76
2023/12/28 04:46:51;;;;;;;;;;;;;;;4.81;72.19;99987.75;1085449;54;1890;-76
2023/12/28 04:47:52;;;;;;;;;;;;;;;4.78;72.38;99993.25;1085243;47;1138;-76
2023/12/28 04:48:55;;;;;;;;;;;;;;;4.76;72.19;99989.88;1087612;54;1101;-77
2023/12/28 04:49:56;;;;;;;;;;;;;;;4.64;72.98;99996.03;1087832;54;1277;-76
2023/12/28 04:50:59;;;;;;;;;;;;;;;4.64;72.73;100001.31;1087582;54;1127;-76
2023/12/28 04:52:01;;;;;;;;;;;;;;;4.67;72.76;100006.41;1086092;47;1018;-76
2023/12/28 04:53:05;;;;;;;;;;;;;;;4.74;72.85;99990.94;1085713;47;964;-76
2023/12/28 04:54:06;;;;;;;;;;;;;;;4.71;73.15;100005.25;1085556;54;1170;-76
2023/12/28 04:55:09;;;;;;;;;;;;;;;4.72;73.08;100009.59;1085463;47;1068;-76
2023/12/28 04:56:10;;;;;;;;;;;;;;;4.69;73.05;100015.09;1085493;54;1114;-75
2023/12/28 04:57:14;;;;;;;;;;;;;;;4.72;72.99;100020.19;1085536;54;1154;-76
2023/12/28 04:58:15;;;;;;;;;;;;;;;4.77;72.67;100019.88;1085517;47;1050;-76
2023/12/28 04:59:18;;;;;;;;;;;;;;;4.76;72.99;100023.47;1086189;47;1359;-77
2023/12/28 05:00:19;;;;;;;;;;;;;;;4.78;72.88;100033.00;1085491;54;1188;-76
2023/12/28 05:01:22;;;;;;;;;;;;;;;4.81;72.98;100032.78;1085794;54;1178;-75
2023/12/28 05:02:25;;;;;;;;;;;;;;;4.78;72.73;100034.78;1084931;47;1038;-76
2023/12/28 05:03:29;;;;;;;;;;;;;;;4.76;73.02;100037.56;1085381;47;1044;-76
2023/12/28 05:04:29;;;;;;;;;;;;;;;4.63;73.55;100036.72;1085560;47;1187;-76
2023/12/28 05:05:32;;;;;;;;;;;;;;;4.73;73.29;100047.50;1085614;54;1105;-77
2023/12/28 05:06:33;;;;;;;;;;;;;;;4.81;73.14;100050.47;1085122;54;1853;-76
2023/12/28 05:07:34;;;;;;;;;;;;;;;4.73;73.21;100058.09;1085504;54;1434;-76
2023/12/28 05:08:37;;;;;;;;;;;;;;;4.74;73.38;100055.34;1085718;54;1060;-76
2023/12/28 05:09:38;;;;;;;;;;;;;;;4.79;73.20;100052.38;1086566;54;1422;-76
2023/12/28 05:10:41;;;;;;;;;;;;;;;4.76;73.11;100058.72;1086391;54;1131;-77
2023/12/28 05:11:43;;;;;;;;;;;;;;;4.75;73.62;100061.50;1085401;54;1151;-75
2023/12/28 05:12:47;;;;;;;;;;;;;;;4.56;74.02;100060.13;1086066;54;1252;-77
2023/12/28 05:13:48;;;;;;;;;;;;;;;4.61;73.55;100054.53;1086859;47;1152;-77
2023/12/28 05:14:51;;;;;;;;;;;;;;;4.62;73.72;100057.06;1086716;54;1480;-77
2023/12/28 05:15:52;;;;;;;;;;;;;;;4.61;73.65;100039.47;1085697;54;1035;-77
2023/12/28 05:16:55;;;;;;;;;;;;;;;4.55;74.39;100049.63;1085362;54;1169;-76
2023/12/28 05:17:59;;;;;;;;;;;;;;;4.58;73.95;100052.06;1085148;47;1105;-76
2023/12/28 05:19:02;;;;;;;;;;;;;;;4.58;73.90;100047.59;1084876;47;1186;-75
2023/12/28 05:20:03;;;;;;;;;;;;;;;4.63;73.88;100042.03;1085718;54;1235;-76
2023/12/28 05:21:07;;;;;;;;;;;;;;;4.62;73.98;100041.16;1085044;47;1189;-75
2023/12/28 05:22:10;;;;;;;;;;;;;;;4.65;73.73;100045.38;1086015;47;1035;-77
2023/12/28 05:23:14;;;;;;;;;;;;;;;4.71;73.78;100046.75;1087886;47;928;-77
2023/12/28 05:24:14;;;;;;;;;;;;;;;4.77;73.56;100055.13;1086808;47;1063;-76
2023/12/28 05:25:15;;;;;;;;;;;;;;;4.86;73.38;100066.03;1085948;47;1122;-76
2023/12/28 05:26:19;;;;;;;;;;;;;;;4.91;73.33;100062.13;1085872;54;1853;-76
2023/12/28 05:27:19;;;;;;;;;;;;;;;4.95;73.38;100074.19;1085384;54;1170;-76
2023/12/28 05:28:22;;;;;;;;;;;;;;;5.05;73.02;100073.56;1086141;47;990;-76
2023/12/28 05:29:23;;;;;;;;;;;;;;;5.10;72.53;100066.13;1086557;54;1351;-77
2023/12/28 05:30:26;;;;;;;;;;;;;;;5.07;72.74;100075.13;1086518;47;1091;-77
2023/12/28 05:31:27;;;;;;;;;;;;;;;5.07;72.84;100079.56;1086310;47;1246;-77
2023/12/28 05:32:31;;;;;;;;;;;;;;;5.04;72.68;100078.00;1086348;54;1093;-76
2023/12/28 05:33:34;;;;;;;;;;;;;;;5.16;72.71;100086.88;1086130;47;1105;-76
2023/12/28 05:34:38;;;;;;;;;;;;;;;5.08;72.63;100092.72;1085715;47;1110;-76